Weather at Horner Farms Airport

Public forecast

Using degrees Fahrenheit for public forecast. Weather courtesy of forecast.io.

Closest aviation weather report (METAR) to Horner Farms Airport

Closest report is Burlington Municipal Airport, 9.9 nm (18.4 km) SW. Retrieved 2021/06/23 02:55 UTC (26 minutes ago):

KBUU 230255Z AUTO 11003KT 10SM 16/10 A2997 RMK AO2 T01550099 PWINO

Closest aviation forecast (TAF) to Horner Farms Airport

Closest forecast is General Mitchell International Airport, 13.7 nm (25.4 km) NE. Retrieved 2021-06-23 00:33 UTC (3 hours ago):

TAF KMKE 222330Z 2300/2406 VRB05KT P6SM BKN080 TEMPO 2300/2302 15006KT SCT080 FM230200 15005KT P6SM BKN100 FM230600 15007KT P6SM VCSH BKN070 FM231300 15009KT P6SM VCSH BKN040 TEMPO 2313/2317 5SM -SHRA BKN030 FM231700 22012G22KT P6SM BKN060